Time;durP1;ratioP1;P1;durP2;ratioP2;P2;SDS_P1;SDS_P2;PMS_P1;PMS_P2;Temp;Humidity;BMP_temperature;BMP_pressure;BME280_temperature;BME280_humidity;BME280_pressure;Samples;Min_cycle;Max_cycle;Signal;HPM_P1;HPM_P2
2023/03/20 00:03:56;;;;;;;7.32;6.53;;;;;;;9.54;100.00;99974.00;10503509;28;20045;-71
2023/03/20 00:08:58;;;;;;;19.58;13.95;;;;;;;9.82;100.00;99988.97;10504674;28;20037;-71
2023/03/20 00:14:11;;;;;;;14.45;13.05;;;;;;;9.57;100.00;99992.31;10502933;28;20106;-72
2023/03/20 00:19:18;;;;;;;7.82;7.20;;;;;;;9.52;100.00;99990.72;10485683;28;20037;-71
2023/03/20 00:24:21;;;;;;;6.80;6.30;;;;;;;9.51;100.00;99995.09;10501749;28;20409;-71
2023/03/20 00:29:25;;;;;;;7.40;6.72;;;;;;;9.43;100.00;99994.47;10501480;28;20044;-71
2023/03/20 00:34:28;;;;;;;7.47;6.88;;;;;;;9.43;100.00;99988.31;10501312;28;20490;-72
2023/03/20 00:39:30;;;;;;;7.10;6.50;;;;;;;9.69;100.00;99992.84;10501810;28;20119;-72
2023/03/20 00:44:43;;;;;;;6.20;5.80;;;;;;;9.43;100.00;99986.59;10483235;28;20054;-72
2023/03/20 00:49:49;;;;;;;7.32;6.80;;;;;;;9.52;100.00;99988.97;10500482;28;20060;-72
2023/03/20 00:54:51;;;;;;;7.05;6.55;;;;;;;9.34;100.00;99987.72;10482648;28;20067;-72
2023/03/20 01:00:27;;;;;;;8.07;7.47;;;;;;;9.17;100.00;99986.44;10501100;28;20128;-72
2023/03/20 01:05:29;;;;;;;6.63;6.10;;;;;;;9.14;100.00;99982.13;10475242;28;20421;-72
2023/03/20 01:10:32;;;;;;;6.00;5.53;;;;;;;9.30;100.00;99987.84;10481761;28;20098;-71
2023/03/20 01:15:35;;;;;;;6.10;5.60;;;;;;;9.37;100.00;99980.63;10481875;28;20052;-73
2023/03/20 01:20:38;;;;;;;6.00;5.50;;;;;;;9.28;100.00;99979.13;10499688;28;20044;-72
2023/03/20 01:25:40;;;;;;;5.50;5.00;;;;;;;9.43;100.00;99978.72;10482847;28;20072;-72
2023/03/20 01:30:43;;;;;;;5.53;5.03;;;;;;;9.34;100.00;99978.94;10499435;28;20504;-72
2023/03/20 01:35:47;;;;;;;3.70;3.40;;;;;;;9.48;100.00;99975.97;10499765;28;20054;-72
2023/03/20 01:41:07;;;;;;;4.55;4.15;;;;;;;9.32;100.00;99979.00;10499447;28;20037;-72
2023/03/20 01:46:30;;;;;;;4.20;3.80;;;;;;;9.29;100.00;99981.69;10483505;28;20048;-71
2023/03/20 01:51:46;;;;;;;4.72;4.32;;;;;;;9.30;100.00;99977.34;10480457;28;20094;-72
2023/03/20 01:56:56;;;;;;;4.10;3.75;;;;;;;9.51;100.00;99979.34;10480263;28;20067;-72
2023/03/20 02:01:58;;;;;;;3.63;3.33;;;;;;;9.59;100.00;99985.22;10480428;28;20040;-72
2023/03/20 02:07:02;;;;;;;3.13;2.78;;;;;;;9.46;100.00;99978.63;10482291;28;20048;-72
2023/03/20 02:12:18;;;;;;;2.78;2.10;;;;;;;9.53;100.00;99979.31;10480432;28;20040;-72
2023/03/20 02:17:22;;;;;;;2.47;2.08;;;;;;;9.62;100.00;99979.06;10480663;28;20444;-72
2023/03/20 02:23:04;;;;;;;2.90;2.22;;;;;;;9.91;100.00;99980.81;10479877;28;20048;-72
2023/03/20 02:28:30;;;;;;;2.88;2.17;;;;;;;9.76;100.00;99979.50;10466714;28;20114;-72
2023/03/20 02:33:53;;;;;;;2.60;2.05;;;;;;;9.69;100.00;99977.94;10483200;28;20132;-71
2023/03/20 02:39:23;;;;;;;2.88;1.90;;;;;;;10.00;99.61;99977.91;10479678;28;20135;-71
2023/03/20 02:44:39;;;;;;;1.70;1.60;;;;;;;10.13;97.27;99974.91;10497110;28;20040;-72
2023/03/20 02:49:54;;;;;;;2.47;1.80;;;;;;;10.05;97.85;99986.53;10480714;28;20052;-72
2023/03/20 02:55:22;;;;;;;2.03;1.83;;;;;;;9.92;98.87;99992.19;10481218;28;20040;-72
2023/03/20 03:00:40;;;;;;;2.53;2.25;;;;;;;10.22;96.05;99978.09;10496516;28;20059;-71
2023/03/20 03:05:59;;;;;;;2.75;2.20;;;;;;;10.17;96.40;99969.50;10488847;28;20484;-72
2023/03/20 03:11:05;;;;;;;2.33;1.65;;;;;;;10.42;93.59;99972.28;10506107;28;20036;-72
2023/03/20 03:16:17;;;;;;;1.65;1.55;;;;;;;10.46;92.59;99981.78;10486846;28;20090;-71
2023/03/20 03:21:22;;;;;;;2.47;1.67;;;;;;;10.23;94.16;99971.97;10485476;28;20066;-71
2023/03/20 03:26:27;;;;;;;1.80;1.70;;;;;;;10.30;93.76;99972.66;10485496;28;20076;-72
2023/03/20 03:31:31;;;;;;;3.03;2.00;;;;;;;10.06;96.36;99969.00;10504180;28;20087;-72
2023/03/20 03:36:58;;;;;;;1.90;1.45;;;;;;;10.17;94.82;99969.50;10486112;28;20040;-71
2023/03/20 03:42:12;;;;;;;;;;;;;;;10.24;94.49;99962.31;10469002;28;20525;-71
2023/03/20 03:47:18;;;;;;;2.17;1.98;;;;;;;9.94;97.21;99970.22;10474636;22;20400;-73
2023/03/20 03:52:23;;;;;;;2.50;2.05;;;;;;;9.91;97.75;99967.69;10483259;28;20106;-71
2023/03/20 03:57:51;;;;;;;1.88;1.70;;;;;;;10.08;95.90;99965.41;10483799;28;20509;-71
2023/03/20 04:02:56;;;;;;;3.53;1.70;;;;;;;10.11;95.11;99964.47;10483727;28;20045;-72
2023/03/20 04:08:00;;;;;;;1.65;1.50;;;;;;;10.12;94.28;99971.44;10483546;28;20045;-71
2023/03/20 04:13:02;;;;;;;2.05;1.55;;;;;;;10.24;93.52;99964.94;10483116;28;20131;-72
2023/03/20 04:18:04;;;;;;;2.25;1.90;;;;;;;10.46;91.40;99973.88;10483447;28;20070;-72
2023/03/20 04:23:07;;;;;;;1.83;1.70;;;;;;;10.58;90.40;99976.13;10483219;28;20047;-71
2023/03/20 04:28:10;;;;;;;2.10;1.65;;;;;;;10.51;90.94;99968.47;10483320;28;20048;-72
2023/03/20 04:33:36;;;;;;;2.90;1.60;;;;;;;10.51;90.65;99986.88;10492880;28;20048;-71
2023/03/20 04:39:07;;;;;;;2.30;1.60;;;;;;;10.43;91.36;99978.38;10482766;28;20048;-72
2023/03/20 04:44:08;;;;;;;3.28;1.98;;;;;;;10.45;90.58;99982.69;10500609;28;20048;-72
2023/03/20 04:49:10;;;;;;;2.42;1.73;;;;;;;10.33;91.36;99983.06;10482817;28;20075;-72
2023/03/20 04:54:12;;;;;;;2.15;1.60;;;;;;;10.44;90.59;99987.97;10482949;28;20135;-72
2023/03/20 04:59:15;;;;;;;1.88;1.60;;;;;;;10.22;92.17;99991.25;10466614;28;20040;-72
2023/03/20 05:04:17;;;;;;;1.80;1.60;;;;;;;10.25;91.69;100001.69;10499930;28;20090;-72
2023/03/20 05:09:20;;;;;;;2.65;1.70;;;;;;;10.26;91.47;100006.03;10499414;28;20456;-71
2023/03/20 05:14:25;;;;;;;2.95;1.45;;;;;;;10.28;91.53;99998.13;10481418;28;20051;-71
2023/03/20 05:19:46;;;;;;;3.33;1.90;;;;;;;10.22;92.25;100020.13;10498414;28;20048;-71
2023/03/20 05:25:10;;;;;;;1.88;1.60;;;;;;;10.36;90.96;100027.66;10480624;28;20052;-71
2023/03/20 05:30:18;;;;;;;3.08;1.67;;;;;;;10.28;91.66;100029.66;10499117;28;20048;-71
2023/03/20 05:35:46;;;;;;;3.03;2.20;;;;;;;10.34;90.94;100030.31;10476629;28;20049;-71
2023/03/20 05:41:00;;;;;;;2.55;2.10;;;;;;;10.43;90.73;100038.81;10480439;28;20102;-71
2023/03/20 05:46:21;;;;;;;2.72;2.00;;;;;;;10.44;89.83;100046.66;10499300;28;20049;-72
2023/03/20 05:51:42;;;;;;;3.13;2.13;;;;;;;10.32;91.81;100052.31;10483837;28;20044;-71
2023/03/20 05:56:53;;;;;;;3.75;2.80;;;;;;;10.26;92.28;100055.09;10480077;28;20048;-71
2023/03/20 06:02:00;;;;;;;5.35;2.30;;;;;;;10.35;91.05;100057.44;10479968;28;20055;-71
2023/03/20 06:07:06;;;;;;;2.38;1.73;;;;;;;10.45;90.55;100055.41;10480103;28;20049;-71
2023/03/20 06:12:10;;;;;;;2.95;2.55;;;;;;;10.30;91.15;100056.72;10479801;28;20051;-70
2023/03/20 06:17:12;;;;;;;5.57;4.85;;;;;;;10.53;89.61;100056.88;10479925;28;20049;-70
2023/03/20 06:22:15;;;;;;;3.42;2.92;;;;;;;10.54;90.46;100061.25;10480097;28;20049;-71
2023/03/20 06:27:17;;;;;;;2.85;2.58;;;;;;;10.79;87.23;100065.72;10479391;28;20398;-72
2023/03/20 06:32:22;;;;;;;8.80;6.03;;;;;;;10.50;89.44;100074.53;10479961;28;20056;-71
2023/03/20 06:37:25;;;;;;;5.45;5.05;;;;;;;10.37;91.29;100075.81;10480880;28;20041;-71
2023/03/20 06:42:35;;;;;;;2.65;2.45;;;;;;;10.39;89.65;100073.97;10487658;28;20061;-71
2023/03/20 06:47:38;;;;;;;3.05;2.80;;;;;;;10.44;90.32;100072.91;10486808;28;20147;-72
2023/03/20 06:52:40;;;;;;;3.22;2.92;;;;;;;10.57;89.87;100074.25;10486667;28;20049;-72
2023/03/20 06:58:00;;;;;;;2.55;2.35;;;;;;;10.98;87.63;100073.84;10505506;28;20052;-71
2023/03/20 07:03:03;;;;;;;3.40;3.10;;;;;;;11.20;87.11;100072.25;10470432;28;20045;-71
2023/03/20 07:08:06;;;;;;;3.40;2.53;;;;;;;11.43;85.58;100062.72;10504109;28;20076;-71
2023/03/20 07:13:09;;;;;;;4.82;2.30;;;;;;;11.41;85.91;100059.25;10486261;28;20037;-72
2023/03/20 07:18:14;;;;;;;4.03;2.50;;;;;;;11.65;86.16;100058.41;10485627;28;20040;-71
2023/03/20 07:23:16;;;;;;;3.22;2.65;;;;;;;12.30;82.36;100070.94;10485606;28;20049;-72
2023/03/20 07:28:18;;;;;;;4.90;2.33;;;;;;;12.27;81.48;100075.47;10486165;28;20565;-72
2023/03/20 07:33:26;;;;;;;3.70;2.58;;;;;;;12.82;79.19;100076.81;10484911;28;20049;-72
2023/03/20 07:38:28;;;;;;;2.83;2.25;;;;;;;12.84;79.68;100074.97;10485440;28;20041;-71
2023/03/20 07:43:39;;;;;;;3.30;3.00;;;;;;;13.08;78.94;100085.44;10485592;28;20140;-72
2023/03/20 07:48:58;;;;;;;3.35;2.60;;;;;;;13.32;78.45;100084.44;10502351;28;20094;-72
2023/03/20 07:53:59;;;;;;;2.75;2.55;;;;;;;13.47;75.76;100084.72;10470159;28;20048;-72
2023/03/20 07:59:01;;;;;;;2.95;2.60;;;;;;;13.14;77.96;100093.94;10503722;28;20048;-73
2023/03/20 08:04:03;;;;;;;3.10;2.80;;;;;;;12.79;78.27;100097.16;10502950;28;20094;-72
2023/03/20 08:09:06;;;;;;;3.58;2.97;;;;;;;12.61;78.69;100096.97;10503036;28;20044;-72
2023/03/20 08:14:07;;;;;;;2.85;2.45;;;;;;;12.73;78.92;100092.13;10502615;28;20052;-72
2023/03/20 08:19:09;;;;;;;3.20;3.00;;;;;;;12.63;79.74;100097.78;10502336;28;20040;-72
2023/03/20 08:24:11;;;;;;;3.63;3.33;;;;;;;12.50;80.93;100103.59;10501655;28;20053;-73
2023/03/20 08:29:16;;;;;;;5.20;3.75;;;;;;;12.38;82.26;100107.53;10502182;28;20387;-72
2023/03/20 08:34:18;;;;;;;4.97;4.57;;;;;;;12.42;80.71;100098.59;10502325;28;20048;-71
2023/03/20 08:39:20;;;;;;;5.88;5.30;;;;;;;12.33;82.50;100105.09;10501427;28;20457;-72
2023/03/20 08:44:22;;;;;;;6.18;5.68;;;;;;;12.17;85.54;100109.19;10483256;28;20408;-72
2023/03/20 08:49:24;;;;;;;7.45;6.95;;;;;;;12.53;83.48;100106.13;10500345;28;20051;-73
2023/03/20 08:54:26;;;;;;;23.27;21.10;;;;;;;12.86;80.63;100109.19;10501567;28;20041;-73
2023/03/20 08:59:28;;;;;;;12.43;11.55;;;;;;;12.65;80.78;100116.16;10483171;28;20070;-72
2023/03/20 09:04:29;;;;;;;23.38;21.48;;;;;;;12.63;81.79;100118.88;10500772;28;20044;-72
2023/03/20 09:09:32;;;;;;;9.57;8.68;;;;;;;12.73;81.61;100122.00;10500159;28;20410;-72
2023/03/20 09:14:33;;;;;;;13.90;12.50;;;;;;;12.85;82.17;100120.69;10500138;28;20044;-72
2023/03/20 09:19:38;;;;;;;12.23;11.23;;;;;;;13.02;81.50;100115.59;10500060;28;20149;-73
2023/03/20 09:24:40;;;;;;;18.27;16.60;;;;;;;13.34;79.46;100118.72;10501628;28;20075;-72
2023/03/20 09:29:42;;;;;;;15.80;14.57;;;;;;;13.26;79.51;100113.75;10500050;28;20036;-71
2023/03/20 09:34:44;;;;;;;16.70;15.40;;;;;;;13.35;79.61;100123.91;10501726;28;20363;-72
2023/03/20 09:39:46;;;;;;;18.35;16.75;;;;;;;13.31;79.40;100130.25;10481819;28;20482;-72
2023/03/20 09:45:10;;;;;;;15.75;14.50;;;;;;;13.28;79.67;100135.66;10500434;28;20123;-72
2023/03/20 09:50:33;;;;;;;22.38;20.67;;;;;;;13.61;78.91;100141.31;10502734;28;20043;-71
2023/03/20 09:55:38;;;;;;;26.20;23.75;;;;;;;13.18;79.69;100144.84;10503468;28;20109;-71
2023/03/20 10:00:45;;;;;;;43.38;33.40;;;;;;;12.97;82.38;100149.22;10500935;28;20095;-71
2023/03/20 10:05:57;;;;;;;29.47;26.30;;;;;;;13.02;81.67;100146.41;10500374;28;20041;-71
2023/03/20 10:11:42;;;;;;;19.08;17.38;;;;;;;13.35;82.56;100142.41;10502486;28;20040;-71
2023/03/20 10:16:56;;;;;;;21.80;19.63;;;;;;;14.30;74.70;100140.94;10509580;28;20045;-72
2023/03/20 10:22:21;;;;;;;18.85;17.35;;;;;;;14.47;74.45;100149.84;10508702;28;20036;-71
2023/03/20 10:27:24;;;;;;;22.13;20.00;;;;;;;14.41;73.47;100144.88;10509069;28;20048;-72
2023/03/20 10:32:37;;;;;;;19.80;18.20;;;;;;;14.81;71.62;100133.31;10508682;28;20079;-72
2023/03/20 10:38:03;;;;;;;17.77;16.38;;;;;;;15.13;71.78;100147.63;10490802;28;20502;-72
2023/03/20 10:43:20;;;;;;;20.02;18.35;;;;;;;15.05;71.96;100145.38;10508798;28;20520;-72
2023/03/20 10:48:39;;;;;;;21.42;19.83;;;;;;;14.75;72.05;100144.19;10508054;28;20523;-72
2023/03/20 10:53:47;;;;;;;21.38;19.75;;;;;;;13.75;76.07;100150.44;10489678;28;20064;-71
2023/03/20 10:58:58;;;;;;;24.23;22.33;;;;;;;13.70;77.91;100139.19;10507891;28;20040;-71
2023/03/20 11:04:00;;;;;;;20.45;18.83;;;;;;;13.73;79.37;100139.06;10507680;28;20402;-71
2023/03/20 11:09:18;;;;;;;17.98;16.67;;;;;;;14.05;78.64;100141.16;10506442;28;20048;-71
2023/03/20 11:14:22;;;;;;;19.15;17.25;;;;;;;13.99;77.29;100138.81;10506077;28;20041;-72
2023/03/20 11:19:24;;;;;;;19.63;18.13;;;;;;;13.40;81.56;100139.56;10506488;28;20048;-71
2023/03/20 11:24:47;;;;;;;21.08;19.10;;;;;;;13.29;81.63;100132.09;10487465;28;20051;-72
2023/03/20 11:29:51;;;;;;;20.00;18.30;;;;;;;13.50;80.62;100135.63;10506073;28;20043;-71
2023/03/20 11:34:56;;;;;;;19.17;17.48;;;;;;;13.16;82.47;100130.84;10471508;28;20425;-71
2023/03/20 11:39:58;;;;;;;19.10;17.40;;;;;;;13.10;83.42;100120.53;10505860;28;20036;-70
2023/03/20 11:45:17;;;;;;;17.30;15.88;;;;;;;13.21;82.66;100115.69;10505260;28;20506;-70
2023/03/20 11:50:35;;;;;;;16.60;15.20;;;;;;;13.40;82.81;100120.22;10505454;28;20033;-72
2023/03/20 11:55:37;;;;;;;18.67;16.52;;;;;;;13.18;83.13;100120.22;10505491;28;20391;-71
2023/03/20 12:00:41;;;;;;;19.20;17.42;;;;;;;13.18;82.74;100110.53;10486415;28;20052;-72
2023/03/20 12:05:43;;;;;;;19.17;17.67;;;;;;;13.26;82.97;100102.31;10505639;28;20072;-71
2023/03/20 12:10:54;;;;;;;20.05;18.55;;;;;;;13.26;83.60;100102.31;10504583;28;20433;-72
2023/03/20 12:16:12;;;;;;;20.05;18.55;;;;;;;12.91;84.56;100093.19;10487511;28;20047;-71
2023/03/20 12:21:25;;;;;;;21.42;19.40;;;;;;;12.90;84.79;100104.66;10504610;28;20044;-72
2023/03/20 12:26:44;;;;;;;21.60;19.90;;;;;;;13.10;84.80;100102.06;10504372;28;20405;-72
2023/03/20 12:32:06;;;;;;;23.60;21.05;;;;;;;12.73;87.50;100097.41;10503366;28;20062;-71
2023/03/20 12:37:10;;;;;;;24.85;22.58;;;;;;;12.70;87.31;100097.53;10503680;28;20048;-71
2023/03/20 12:42:40;;;;;;;23.08;20.98;;;;;;;12.56;87.41;100090.16;10503725;28;20405;-71
2023/03/20 12:47:45;;;;;;;22.90;20.90;;;;;;;12.54;88.12;100089.38;10503035;28;20045;-71
2023/03/20 12:53:18;;;;;;;22.17;20.00;;;;;;;12.99;84.90;100081.41;10504213;28;20040;-72
2023/03/20 12:58:26;;;;;;;21.75;19.60;;;;;;;13.38;83.34;100089.47;10486049;28;20058;-71
2023/03/20 13:04:04;;;;;;;22.15;20.20;;;;;;;13.38;82.26;100080.69;10503034;28;20036;-71
2023/03/20 13:09:19;;;;;;;23.73;21.73;;;;;;;13.18;84.01;100070.94;10505165;28;20047;-72
2023/03/20 13:14:23;;;;;;;27.08;24.40;;;;;;;13.21;82.54;100070.81;10503857;28;20060;-72
2023/03/20 13:20:01;;;;;;;35.05;28.58;;;;;;;13.16;84.82;100062.22;10503086;28;20094;-71
2023/03/20 13:25:31;;;;;;;33.38;27.73;;;;;;;12.86;86.67;100054.66;10502930;28;20406;-70
2023/03/20 13:30:46;;;;;;;33.05;29.52;;;;;;;12.87;87.47;100048.44;10536823;28;20040;-71
2023/03/20 13:35:56;;;;;;;32.40;29.15;;;;;;;13.02;86.31;100049.63;10513445;28;20044;-72
2023/03/20 13:41:05;;;;;;;33.35;29.35;;;;;;;13.03;85.98;100043.41;10485806;28;20036;-71
2023/03/20 13:46:15;;;;;;;33.65;28.77;;;;;;;12.87;87.28;100043.16;10531626;28;20097;-70
2023/03/20 13:51:43;;;;;;;32.08;28.92;;;;;;;12.72;87.26;100041.16;10546057;28;20062;-71
2023/03/20 13:56:53;;;;;;;33.22;28.85;;;;;;;12.74;88.24;100043.75;10545392;28;20382;-72
2023/03/20 14:02:05;;;;;;;30.67;27.83;;;;;;;12.75;87.82;100042.81;10524099;28;20033;-71
2023/03/20 14:07:36;;;;;;;31.73;27.02;;;;;;;12.62;88.83;100042.47;10501751;28;20048;-71
2023/03/20 14:12:38;;;;;;;33.83;30.25;;;;;;;12.53;90.54;100043.69;10500329;28;20041;-72
2023/03/20 14:17:43;;;;;;;32.97;29.63;;;;;;;12.47;90.42;100046.56;10500038;28;20094;-71
2023/03/20 14:22:47;;;;;;;34.97;30.48;;;;;;;12.22;91.31;100043.16;10482220;28;20044;-72
2023/03/20 14:27:54;;;;;;;34.45;30.48;;;;;;;12.15;92.79;100042.53;10501091;28;20098;-72
2023/03/20 14:33:11;;;;;;;39.55;31.63;;;;;;;11.88;94.95;100038.31;10501011;28;20545;-72
2023/03/20 14:38:38;;;;;;;41.50;34.00;;;;;;;11.79;98.00;100044.75;10500890;28;20417;-72
2023/03/20 14:43:59;;;;;;;;;;;;;;;11.56;100.00;100042.94;10500338;28;20475;-72
2023/03/20 14:49:21;;;;;;;48.42;35.20;;;;;;;11.35;100.00;100040.13;10509653;28;19927;-72
2023/03/20 14:54:22;;;;;;;50.88;35.03;;;;;;;11.30;100.00;100039.44;10535969;28;20058;-71
2023/03/20 14:59:24;;;;;;;53.97;36.45;;;;;;;11.29;100.00;100034.25;10503923;28;20041;-72
2023/03/20 15:04:37;;;;;;;67.30;39.28;;;;;;;11.32;100.00;100042.00;10519406;28;20036;-71
2023/03/20 15:09:43;;;;;;;62.45;37.80;;;;;;;11.16;100.00;100049.59;10550565;28;20051;-72
2023/03/20 15:14:53;;;;;;;56.17;38.97;;;;;;;11.41;100.00;100054.84;10531657;28;20562;-72
2023/03/20 15:20:01;;;;;;;61.38;38.20;;;;;;;11.32;100.00;100045.50;10551078;28;20095;-72
2023/03/20 15:25:03;;;;;;;57.03;36.85;;;;;;;10.91;100.00;100046.06;10509996;28;20056;-73
2023/03/20 15:30:06;;;;;;;75.50;43.47;;;;;;;10.83;100.00;100041.88;10504903;28;20040;-74
2023/03/20 15:35:26;;;;;;;62.97;40.45;;;;;;;10.83;100.00;100038.41;10503676;28;20123;-74
2023/03/20 15:40:31;;;;;;;67.72;39.47;;;;;;;10.95;100.00;100029.25;10503457;28;20044;-74
2023/03/20 15:45:53;;;;;;;40.72;32.20;;;;;;;10.81;100.00;100033.22;10511044;22;20374;-71
2023/03/20 15:51:11;;;;;;;36.13;28.88;;;;;;;10.88;100.00;100030.38;10462610;28;20045;-72
2023/03/20 15:56:16;;;;;;;29.83;26.65;;;;;;;10.79;100.00;100035.00;10462990;28;20406;-71
2023/03/20 16:01:22;;;;;;;31.73;27.15;;;;;;;10.86;100.00;100047.06;10461184;28;20044;-71
2023/03/20 16:06:25;;;;;;;28.77;25.35;;;;;;;10.76;100.00;100034.28;10461702;28;20053;-72
2023/03/20 16:11:39;;;;;;;33.15;29.58;;;;;;;10.67;100.00;100032.81;10459667;28;20057;-71
2023/03/20 16:16:42;;;;;;;33.95;27.38;;;;;;;10.67;100.00;100039.81;10461829;28;20099;-72
2023/03/20 16:21:49;;;;;;;34.13;24.85;;;;;;;10.99;100.00;100037.00;10460080;28;20071;-71
2023/03/20 16:26:52;;;;;;;31.90;25.55;;;;;;;10.85;100.00;100040.09;10501780;28;20041;-71
2023/03/20 16:32:19;;;;;;;37.22;28.80;;;;;;;10.73;100.00;100037.84;10483193;28;20041;-71
2023/03/20 16:37:27;;;;;;;26.20;23.40;;;;;;;10.82;100.00;100044.59;10483760;28;20143;-72
2023/03/20 16:42:29;;;;;;;18.10;16.70;;;;;;;10.73;100.00;100035.22;10501113;28;20482;-71
2023/03/20 16:47:37;;;;;;;16.00;14.75;;;;;;;10.70;100.00;100029.19;10500815;28;20068;-71
2023/03/20 16:52:43;;;;;;;13.10;12.15;;;;;;;10.73;100.00;100027.34;10501890;28;20067;-71
2023/03/20 16:57:48;;;;;;;13.45;12.55;;;;;;;10.72;100.00;100030.03;10502283;28;20045;-72
2023/03/20 17:02:58;;;;;;;11.60;10.80;;;;;;;10.53;100.00;100035.84;10500354;28;20078;-70
2023/03/20 17:08:09;;;;;;;10.13;9.43;;;;;;;10.70;100.00;100027.44;10499858;28;20040;-71
2023/03/20 17:13:11;;;;;;;10.68;9.77;;;;;;;10.67;100.00;100037.19;10481896;28;20063;-71
2023/03/20 17:18:13;;;;;;;10.57;9.80;;;;;;;10.51;100.00;100034.19;10481621;28;20040;-71
2023/03/20 17:23:19;;;;;;;9.43;8.73;;;;;;;10.57;100.00;100032.22;10499765;28;20082;-71
2023/03/20 17:28:26;;;;;;;9.10;8.50;;;;;;;10.56;100.00;100025.25;10499540;28;20040;-71
2023/03/20 17:33:28;;;;;;;9.90;9.10;;;;;;;10.43;100.00;100031.78;10497318;28;20086;-71
2023/03/20 17:38:30;;;;;;;8.68;7.97;;;;;;;10.49;100.00;100036.88;10496990;28;20044;-71
2023/03/20 17:43:32;;;;;;;8.23;7.63;;;;;;;10.48;100.00;100037.75;10499530;28;20444;-71
2023/03/20 17:48:34;;;;;;;9.25;8.45;;;;;;;10.40;100.00;100024.00;10496793;28;20047;-70
2023/03/20 17:53:35;;;;;;;8.43;7.78;;;;;;;10.36;100.00;100022.41;10496652;28;20397;-71
2023/03/20 17:58:38;;;;;;;8.82;8.13;;;;;;;10.40;100.00;100029.25;10496657;28;20539;-71
2023/03/20 18:03:40;;;;;;;8.00;7.40;;;;;;;10.47;100.00;100022.06;10480190;28;20040;-70
2023/03/20 18:08:41;;;;;;;7.75;7.15;;;;;;;10.31;100.00;100032.16;10498261;28;20058;-71
2023/03/20 18:13:43;;;;;;;8.63;7.93;;;;;;;10.35;100.00;100032.03;10498636;28;20037;-71
2023/03/20 18:18:46;;;;;;;8.07;7.47;;;;;;;10.39;100.00;100027.53;10480609;28;20528;-71
2023/03/20 18:23:47;;;;;;;7.90;7.30;;;;;;;10.42;100.00;100037.09;10497922;28;20056;-70
2023/03/20 18:28:51;;;;;;;7.47;6.88;;;;;;;10.27;100.00;100028.78;10500556;28;20044;-72
2023/03/20 18:33:53;;;;;;;7.50;7.00;;;;;;;10.32;100.00;100036.53;10501991;28;20044;-69
2023/03/20 18:38:55;;;;;;;8.20;7.60;;;;;;;10.31;100.00;100034.78;10487784;28;20398;-71
2023/03/20 18:43:57;;;;;;;8.10;7.50;;;;;;;10.15;100.00;100025.66;10505495;28;20051;-70
2023/03/20 18:48:58;;;;;;;8.27;7.57;;;;;;;10.02;100.00;100036.50;10506040;28;20086;-68
2023/03/20 18:54:00;;;;;;;8.90;8.05;;;;;;;9.95;100.00;100048.09;10510671;28;20040;-70
2023/03/20 18:59:08;;;;;;;8.63;8.02;;;;;;;9.95;100.00;100050.72;10500391;28;20516;-71
2023/03/20 19:04:10;;;;;;;9.70;9.00;;;;;;;9.88;100.00;100051.81;10547714;28;20036;-71
2023/03/20 19:09:11;;;;;;;9.88;9.13;;;;;;;9.86;100.00;100048.34;10520776;28;20041;-70
2023/03/20 19:14:13;;;;;;;11.02;10.25;;;;;;;9.87;100.00;100044.81;10506405;28;20406;-70
2023/03/20 19:19:15;;;;;;;10.65;9.85;;;;;;;10.33;100.00;100038.25;10462584;28;20040;-70
2023/03/20 19:24:20;;;;;;;9.70;8.95;;;;;;;10.08;100.00;100036.31;10462837;28;20406;-71
2023/03/20 19:29:22;;;;;;;11.38;9.52;;;;;;;10.20;100.00;100037.72;10467227;28;20445;-71
2023/03/20 19:34:23;;;;;;;11.45;10.35;;;;;;;10.24;100.00;100028.00;10462717;28;20045;-71
2023/03/20 19:39:45;;;;;;;11.45;10.55;;;;;;;10.28;100.00;100033.13;10463015;28;20448;-71
2023/03/20 19:44:47;;;;;;;11.50;10.70;;;;;;;10.37;100.00;100025.88;10462621;28;20048;-71
2023/03/20 19:49:48;;;;;;;11.90;11.05;;;;;;;10.29;100.00;100034.00;10461012;28;20049;-72
2023/03/20 19:54:50;;;;;;;10.90;10.13;;;;;;;10.17;100.00;100029.94;10461646;28;20071;-71
2023/03/20 20:00:04;;;;;;;11.85;10.95;;;;;;;10.11;100.00;100022.25;10461381;28;20525;-72
2023/03/20 20:05:29;;;;;;;10.95;10.10;;;;;;;9.91;100.00;100019.34;10463474;28;20041;-70
2023/03/20 20:10:34;;;;;;;11.52;10.63;;;;;;;9.90;100.00;100013.22;10443312;28;20045;-71
2023/03/20 20:15:36;;;;;;;12.60;11.70;;;;;;;9.83;100.00;100020.44;10463345;28;20116;-72
2023/03/20 20:20:43;;;;;;;13.30;12.20;;;;;;;9.63;100.00;100014.03;10442898;28;20045;-71
2023/03/20 20:26:08;;;;;;;11.97;11.10;;;;;;;9.48;100.00;100007.44;10460885;28;20075;-71
2023/03/20 20:31:10;;;;;;;12.15;11.15;;;;;;;9.40;100.00;100010.28;10459325;28;20052;-70
2023/03/20 20:36:13;;;;;;;13.10;12.00;;;;;;;9.14;100.00;100004.88;10460230;28;20045;-70
2023/03/20 20:41:35;;;;;;;12.48;11.55;;;;;;;9.27;100.00;100003.66;10446033;28;20095;-70
2023/03/20 20:46:37;;;;;;;12.45;11.55;;;;;;;9.29;100.00;100007.94;10459836;28;20043;-70
2023/03/20 20:51:38;;;;;;;13.90;12.80;;;;;;;9.47;100.00;100009.19;10460591;28;20053;-70
2023/03/20 20:56:40;;;;;;;14.23;13.00;;;;;;;9.54;100.00;100002.03;10459904;28;20083;-71
2023/03/20 21:01:42;;;;;;;14.07;12.98;;;;;;;9.47;100.00;100001.31;10441860;28;20461;-71
2023/03/20 21:06:44;;;;;;;14.60;13.30;;;;;;;9.72;100.00;99996.25;10458809;28;20045;-71
2023/03/20 21:12:09;;;;;;;15.27;13.85;;;;;;;9.79;100.00;100005.69;10458825;28;20041;-69
2023/03/20 21:17:11;;;;;;;14.30;13.23;;;;;;;9.84;100.00;100013.41;10440459;28;20068;-71
2023/03/20 21:22:14;;;;;;;14.98;13.93;;;;;;;9.84;100.00;100010.78;10458433;28;20036;-71
2023/03/20 21:27:19;;;;;;;14.77;13.65;;;;;;;9.77;100.00;100010.09;10458237;28;20047;-71
2023/03/20 21:32:21;;;;;;;14.57;13.45;;;;;;;9.71;100.00;100014.69;10458209;28;20041;-71
2023/03/20 21:37:23;;;;;;;19.30;13.85;;;;;;;9.69;100.00;100019.09;10457436;28;20045;-70
2023/03/20 21:42:45;;;;;;;14.63;13.52;;;;;;;9.86;100.00;100019.47;10443207;28;20041;-71
2023/03/20 21:47:50;;;;;;;15.13;13.85;;;;;;;9.64;100.00;100024.47;10473652;23;20041;-73
2023/03/20 21:53:12;;;;;;;14.20;13.20;;;;;;;9.44;100.00;100019.78;10460799;28;20044;-72
2023/03/20 21:58:37;;;;;;;16.33;15.10;;;;;;;9.60;100.00;100034.19;10502485;28;20051;-73
2023/03/20 22:03:59;;;;;;;14.68;13.63;;;;;;;9.79;100.00;100023.19;10501901;28;20045;-72
2023/03/20 22:09:25;;;;;;;14.93;13.75;;;;;;;9.68;100.00;100025.25;10493665;28;20051;-73
2023/03/20 22:14:47;;;;;;;14.87;13.77;;;;;;;9.55;100.00;100028.22;10492399;28;20098;-71
2023/03/20 22:20:09;;;;;;;13.68;12.57;;;;;;;9.60;100.00;100030.72;10492354;28;20119;-72
2023/03/20 22:25:31;;;;;;;13.90;12.70;;;;;;;9.72;100.00;100035.63;10494731;28;20040;-72
2023/03/20 22:30:53;;;;;;;13.75;12.75;;;;;;;9.67;100.00;100044.53;10495366;28;20402;-73
2023/03/20 22:36:15;;;;;;;13.65;12.65;;;;;;;9.63;100.00;100040.28;10509233;28;20079;-71
2023/03/20 22:41:38;;;;;;;13.35;12.35;;;;;;;9.72;100.00;100042.63;10490316;28;20036;-71
2023/03/20 22:47:00;;;;;;;13.77;12.60;;;;;;;9.61;100.00;100050.81;10508730;28;20045;-71
2023/03/20 22:52:02;;;;;;;13.02;11.95;;;;;;;9.77;100.00;100048.63;10488625;28;20079;-71
2023/03/20 22:57:20;;;;;;;13.20;12.20;;;;;;;9.70;100.00;100041.84;10506863;28;20046;-71
2023/03/20 23:02:35;;;;;;;13.43;12.32;;;;;;;9.57;100.00;100030.81;10505837;28;20048;-72
2023/03/20 23:07:37;;;;;;;13.57;12.52;;;;;;;9.62;100.00;100025.44;10504702;28;20098;-72
2023/03/20 23:12:39;;;;;;;13.73;12.63;;;;;;;9.63;100.00;100029.78;10505683;28;20115;-72
2023/03/20 23:17:44;;;;;;;12.60;11.70;;;;;;;9.47;100.00;100029.31;10487315;28;20052;-72
2023/03/20 23:22:46;;;;;;;13.27;12.25;;;;;;;9.40;100.00;100036.50;10486242;28;20041;-72
2023/03/20 23:27:48;;;;;;;13.05;12.05;;;;;;;9.54;100.00;100028.25;10504909;28;20044;-71